createdAt,value
2022-11-16T00:00:05.867Z,15.80
2022-11-16T00:02:14.722Z,15.80
2022-11-16T00:04:20.809Z,15.70
2022-11-16T00:06:31.706Z,15.70
2022-11-16T00:08:43.475Z,15.70
2022-11-16T00:10:56.802Z,15.70
2022-11-16T00:12:58.587Z,15.70
2022-11-16T00:15:00.344Z,15.70
2022-11-16T00:17:08.070Z,15.70
2022-11-16T00:21:31.919Z,15.70
2022-11-16T00:23:38.537Z,15.70
2022-11-16T00:25:40.611Z,15.70
2022-11-16T00:27:45.001Z,15.70
2022-11-16T00:29:51.236Z,15.70
2022-11-16T00:31:53.722Z,15.70
2022-11-16T00:33:55.777Z,15.70
2022-11-16T00:35:59.930Z,15.70
2022-11-16T00:38:04.905Z,15.70
2022-11-16T00:40:07.092Z,15.70
2022-11-16T00:42:10.362Z,15.70
2022-11-16T00:44:15.747Z,15.70
2022-11-16T00:46:20.383Z,15.70
2022-11-16T00:48:24.266Z,15.70
2022-11-16T00:50:28.911Z,15.70
2022-11-16T00:52:31.096Z,15.70
2022-11-16T00:54:36.273Z,15.70
2022-11-16T00:56:38.169Z,15.70
2022-11-16T00:58:47.553Z,15.70
2022-11-16T01:00:51.923Z,15.70
2022-11-16T01:02:56.220Z,15.70
2022-11-16T01:04:59.444Z,15.70
2022-11-16T01:07:01.312Z,15.70
2022-11-16T01:09:07.328Z,15.70
2022-11-16T01:11:28.300Z,15.60
2022-11-16T01:13:29.937Z,15.70
2022-11-16T01:15:31.596Z,15.60
2022-11-16T01:17:33.321Z,15.60
2022-11-16T01:19:35.167Z,15.60
2022-11-16T01:21:36.834Z,15.60
2022-11-16T01:23:38.537Z,15.60
2022-11-16T01:25:40.140Z,15.60
2022-11-16T01:27:42.531Z,15.60
2022-11-16T01:29:49.874Z,15.60
2022-11-16T01:31:51.995Z,15.60
2022-11-16T01:33:54.121Z,15.60
2022-11-16T01:36:02.375Z,15.60
2022-11-16T01:38:05.011Z,15.60
2022-11-16T01:40:08.518Z,15.60
2022-11-16T01:42:16.724Z,15.60
2022-11-16T01:44:33.414Z,15.60
2022-11-16T01:46:45.535Z,15.60
2022-11-16T01:48:50.723Z,15.60
2022-11-16T01:50:53.829Z,15.60
2022-11-16T01:52:58.891Z,15.50
2022-11-16T01:55:03.905Z,15.60
2022-11-16T01:57:23.348Z,15.60
2022-11-16T01:59:35.991Z,15.60
2022-11-16T02:01:39.340Z,15.50
2022-11-16T02:03:41.192Z,15.60
2022-11-16T02:05:43.351Z,15.60
2022-11-16T02:08:06.451Z,15.60
2022-11-16T02:10:08.193Z,15.60
2022-11-16T02:12:25.097Z,15.60
2022-11-16T02:14:26.766Z,15.60
2022-11-16T02:16:34.203Z,15.50
2022-11-16T02:19:00.554Z,15.50
2022-11-16T02:21:05.288Z,15.50
2022-11-16T02:23:22.171Z,15.60
2022-11-16T02:25:32.412Z,15.60
2022-11-16T02:27:48.855Z,15.60
2022-11-16T02:29:52.657Z,15.50
2022-11-16T02:31:59.370Z,15.50
2022-11-16T02:34:01.320Z,15.50
2022-11-16T02:36:05.165Z,15.50
2022-11-16T02:38:12.051Z,15.60
2022-11-16T02:40:15.597Z,15.50
2022-11-16T02:42:19.286Z,15.60
2022-11-16T02:44:23.089Z,15.50
2022-11-16T02:46:29.252Z,15.60
2022-11-16T02:48:40.634Z,15.60
2022-11-16T02:50:42.686Z,15.60
2022-11-16T02:52:44.560Z,15.50
2022-11-16T02:54:46.202Z,15.60
2022-11-16T02:56:53.376Z,15.50
2022-11-16T02:58:59.283Z,15.60
2022-11-16T03:01:06.403Z,15.50
2022-11-16T03:03:16.460Z,15.50
2022-11-16T03:05:20.366Z,15.50
2022-11-16T03:07:32.996Z,15.50
2022-11-16T03:09:36.602Z,15.50
2022-11-16T03:12:02.047Z,15.60
2022-11-16T03:14:11.012Z,15.60
2022-11-16T03:16:18.883Z,15.50
2022-11-16T03:18:22.278Z,15.50
2022-11-16T03:20:28.197Z,15.50
2022-11-16T03:22:43.599Z,15.50
2022-11-16T03:24:45.519Z,15.50
2022-11-16T03:26:47.569Z,15.50
2022-11-16T03:28:52.069Z,15.50
2022-11-16T03:31:02.357Z,15.50
2022-11-16T03:33:20.808Z,15.50
2022-11-16T03:35:27.922Z,15.50
2022-11-16T03:37:31.204Z,15.50
2022-11-16T03:39:36.870Z,15.40
2022-11-16T03:41:41.442Z,15.40
2022-11-16T03:43:43.611Z,15.50
2022-11-16T03:45:45.800Z,15.40
2022-11-16T03:47:47.628Z,15.40
2022-11-16T03:49:50.151Z,15.50
2022-11-16T03:51:54.212Z,15.50
2022-11-16T03:53:56.712Z,15.40
2022-11-16T03:55:58.556Z,15.40
2022-11-16T03:58:01.858Z,15.40
2022-11-16T04:00:04.237Z,15.40
2022-11-16T04:02:15.054Z,15.40
2022-11-16T04:04:36.177Z,15.40
2022-11-16T04:07:08.513Z,15.40
2022-11-16T04:09:29.044Z,15.40
2022-11-16T04:11:49.499Z,15.40
2022-11-16T04:14:11.596Z,15.40
2022-11-16T04:16:34.590Z,15.40
2022-11-16T04:18:55.049Z,15.40
2022-11-16T04:21:15.119Z,15.40
2022-11-16T04:23:35.153Z,15.40
2022-11-16T04:25:39.007Z,15.40
2022-11-16T04:28:06.481Z,15.40
2022-11-16T04:30:08.363Z,15.40
2022-11-16T04:32:29.688Z,15.40
2022-11-16T04:34:51.401Z,15.40
2022-11-16T04:37:11.832Z,15.40
2022-11-16T04:39:14.952Z,15.40
2022-11-16T04:41:35.980Z,15.40
2022-11-16T04:43:37.635Z,15.40
2022-11-16T04:45:57.796Z,15.40
2022-11-16T04:48:04.948Z,15.40
2022-11-16T04:50:09.119Z,15.40
2022-11-16T04:52:10.854Z,15.40
2022-11-16T04:54:13.795Z,15.40
2022-11-16T04:56:16.308Z,15.40
2022-11-16T04:58:17.971Z,15.40
2022-11-16T05:00:20.687Z,15.40
2022-11-16T05:02:24.051Z,15.40
2022-11-16T05:04:31.952Z,15.40
2022-11-16T05:06:33.629Z,15.40
2022-11-16T05:08:35.641Z,15.40
2022-11-16T05:10:39.066Z,15.40
2022-11-16T05:12:42.408Z,15.40
2022-11-16T05:14:45.608Z,15.40
2022-11-16T05:16:48.888Z,15.40
2022-11-16T05:19:10.518Z,15.40
2022-11-16T05:21:12.880Z,15.40
2022-11-16T05:23:34.872Z,15.30
2022-11-16T05:25:42.528Z,15.30
2022-11-16T05:27:45.743Z,15.30
2022-11-16T05:29:49.624Z,15.30
2022-11-16T05:31:53.593Z,15.30
2022-11-16T05:33:56.233Z,15.20
2022-11-16T05:35:58.456Z,15.20
2022-11-16T05:38:00.186Z,15.20
2022-11-16T05:40:02.468Z,15.20
2022-11-16T05:42:16.886Z,15.20
2022-11-16T05:44:19.070Z,15.20
2022-11-16T05:46:21.144Z,15.20
2022-11-16T05:48:22.966Z,15.20
2022-11-16T05:50:24.831Z,15.30
2022-11-16T05:52:38.668Z,15.20
2022-11-16T05:54:43.571Z,15.20
2022-11-16T05:56:45.958Z,15.20
2022-11-16T05:58:47.734Z,15.20
2022-11-16T06:00:50.988Z,15.20
2022-11-16T06:02:54.219Z,15.20
2022-11-16T06:05:01.136Z,15.20
2022-11-16T06:07:02.908Z,15.20
2022-11-16T06:09:09.260Z,15.20
2022-11-16T06:11:12.836Z,15.20
2022-11-16T06:13:15.280Z,15.20
2022-11-16T06:15:17.247Z,15.20
2022-11-16T06:17:19.035Z,15.30
2022-11-16T06:19:20.782Z,15.20
2022-11-16T06:21:22.501Z,15.20
2022-11-16T06:23:24.237Z,15.30
2022-11-16T06:25:27.339Z,15.20
2022-11-16T06:27:29.096Z,15.30
2022-11-16T06:29:31.081Z,15.30
2022-11-16T06:31:32.893Z,15.30
2022-11-16T06:33:36.776Z,15.30
2022-11-16T06:35:42.808Z,15.30
2022-11-16T06:37:44.476Z,15.30
2022-11-16T06:39:46.131Z,15.30
2022-11-16T06:41:48.228Z,15.30
2022-11-16T06:43:49.923Z,15.30
2022-11-16T06:45:56.351Z,15.30
2022-11-16T06:47:58.174Z,15.20
2022-11-16T06:50:00.050Z,15.20
2022-11-16T06:52:01.934Z,15.20
2022-11-16T06:54:04.055Z,15.20
2022-11-16T06:56:06.260Z,15.20
2022-11-16T06:58:13.448Z,15.20
2022-11-16T07:00:17.225Z,15.20
2022-11-16T07:02:21.331Z,15.20
2022-11-16T07:04:24.077Z,15.20
2022-11-16T07:06:30.085Z,15.20
2022-11-16T07:08:32.955Z,15.20
2022-11-16T07:10:34.909Z,15.20
2022-11-16T07:12:37.091Z,15.20
2022-11-16T07:14:40.776Z,15.20
2022-11-16T07:16:44.260Z,15.20
2022-11-16T07:18:46.236Z,15.20
2022-11-16T07:20:48.399Z,15.20
2022-11-16T07:22:50.102Z,15.30
2022-11-16T07:24:52.939Z,15.30
2022-11-16T07:26:56.001Z,15.20
2022-11-16T07:29:01.258Z,15.20
2022-11-16T07:31:03.666Z,15.20
2022-11-16T07:33:06.788Z,15.30
2022-11-16T07:35:31.281Z,15.30
2022-11-16T07:37:32.950Z,15.30
2022-11-16T07:39:34.695Z,15.30
2022-11-16T07:41:38.207Z,15.30
2022-11-16T07:43:52.765Z,15.30
2022-11-16T07:46:44.704Z,15.30
2022-11-16T07:48:27.812Z,15.30
2022-11-16T07:50:52.392Z,15.30
2022-11-16T07:52:55.767Z,15.30
2022-11-16T07:54:57.494Z,15.30
2022-11-16T07:57:01.443Z,15.30
2022-11-16T07:59:03.615Z,15.30
2022-11-16T08:01:13.295Z,15.30
2022-11-16T08:03:18.182Z,15.20
2022-11-16T08:05:23.548Z,15.30
2022-11-16T08:07:26.253Z,15.30
2022-11-16T08:09:30.744Z,15.30
2022-11-16T08:11:33.072Z,15.30
2022-11-16T08:13:35.631Z,15.30
2022-11-16T08:15:38.016Z,15.20
2022-11-16T08:17:42.126Z,15.20
2022-11-16T08:19:46.415Z,15.20
2022-11-16T08:21:51.041Z,15.20
2022-11-16T08:23:58.204Z,15.30
2022-11-16T08:26:01.576Z,15.20
2022-11-16T08:28:03.766Z,15.20
2022-11-16T08:30:09.813Z,15.20
2022-11-16T08:32:12.822Z,15.30
2022-11-16T08:34:14.635Z,15.20
2022-11-16T08:36:20.254Z,15.30
2022-11-16T08:38:23.460Z,15.20
2022-11-16T08:40:25.170Z,15.30
2022-11-16T08:42:27.054Z,15.30
2022-11-16T08:44:29.039Z,15.30
2022-11-16T08:46:32.885Z,15.30
2022-11-16T08:48:47.492Z,15.30
2022-11-16T08:51:15.979Z,15.30
2022-11-16T08:53:15.362Z,15.40
2022-11-16T08:55:18.663Z,15.40
2022-11-16T08:57:20.458Z,15.40
2022-11-16T08:59:27.097Z,15.40
2022-11-16T09:01:32.808Z,15.40
2022-11-16T09:03:34.577Z,15.50
2022-11-16T09:05:36.301Z,15.50
2022-11-16T09:07:39.333Z,15.50
2022-11-16T09:09:41.047Z,15.50
2022-11-16T09:11:43.148Z,15.50
2022-11-16T09:13:45.900Z,15.50
2022-11-16T09:15:47.546Z,15.60
2022-11-16T09:17:49.748Z,15.60
2022-11-16T09:19:51.451Z,15.60
2022-11-16T09:28:36.629Z,15.70
2022-11-16T09:31:08.115Z,15.70
2022-11-16T09:33:34.934Z,15.70
2022-11-16T09:35:41.151Z,15.80
2022-11-16T09:37:43.322Z,15.80
2022-11-16T09:39:53.729Z,15.80
2022-11-16T09:42:07.185Z,15.80
2022-11-16T09:44:42.270Z,15.80
2022-11-16T09:46:58.336Z,15.80
2022-11-16T09:49:17.700Z,15.80
2022-11-16T09:51:37.043Z,15.80
2022-11-16T09:54:00.801Z,15.80
2022-11-16T09:56:21.689Z,15.80
2022-11-16T09:58:36.686Z,15.80
2022-11-16T10:00:44.381Z,15.80
2022-11-16T10:02:48.164Z,15.80
2022-11-16T10:05:08.309Z,15.80
2022-11-16T10:07:13.090Z,15.80
2022-11-16T10:09:15.019Z,15.90
2022-11-16T10:11:35.605Z,15.90
2022-11-16T10:14:00.094Z,15.90
2022-11-16T10:16:11.318Z,15.90
2022-11-16T10:18:19.046Z,15.90
2022-11-16T10:20:39.652Z,15.90
2022-11-16T10:22:48.789Z,15.90
2022-11-16T10:24:57.875Z,15.90
2022-11-16T10:27:03.107Z,15.90
2022-11-16T10:29:12.513Z,15.80
2022-11-16T10:31:22.546Z,15.90
2022-11-16T10:33:25.389Z,15.80
2022-11-16T10:35:27.168Z,15.90
2022-11-16T10:37:30.872Z,15.90
2022-11-16T10:39:33.853Z,15.90
2022-11-16T10:41:39.201Z,15.90
2022-11-16T10:43:42.130Z,15.90
2022-11-16T10:45:50.395Z,15.90
2022-11-16T10:47:56.980Z,16.00
2022-11-16T10:50:09.943Z,16.00
2022-11-16T10:52:11.644Z,16.00
2022-11-16T10:54:13.929Z,16.10
2022-11-16T10:56:34.314Z,16.10
2022-11-16T10:58:54.668Z,16.10
2022-11-16T11:00:56.434Z,16.10
2022-11-16T11:02:58.282Z,16.20
2022-11-16T11:05:05.544Z,16.20
2022-11-16T11:07:29.236Z,16.20
2022-11-16T11:09:35.276Z,16.30
2022-11-16T11:11:59.948Z,16.30
2022-11-16T11:14:05.443Z,16.30
2022-11-16T11:16:15.679Z,16.40
2022-11-16T11:18:20.304Z,16.30
2022-11-16T11:20:23.946Z,16.40
2022-11-16T11:22:26.030Z,16.40
2022-11-16T11:24:45.284Z,16.40
2022-11-16T11:26:55.168Z,16.50
2022-11-16T11:28:57.049Z,16.50
2022-11-16T11:30:58.743Z,16.60
2022-11-16T11:33:00.510Z,16.60
2022-11-16T11:35:03.524Z,16.60
2022-11-16T11:37:06.584Z,16.60
2022-11-16T11:39:28.670Z,16.70
2022-11-16T11:41:34.350Z,16.70
2022-11-16T11:43:37.536Z,16.70
2022-11-16T11:45:46.626Z,16.70
2022-11-16T11:48:06.953Z,16.70
2022-11-16T11:50:34.627Z,16.70
2022-11-16T11:52:42.762Z,16.70
2022-11-16T11:54:47.749Z,16.60
2022-11-16T11:56:49.465Z,16.60
2022-11-16T11:58:51.913Z,16.60
2022-11-16T12:00:56.699Z,16.70
2022-11-16T12:03:17.131Z,16.60
2022-11-16T12:05:28.248Z,16.70
2022-11-16T12:07:48.824Z,16.60
2022-11-16T12:10:09.314Z,16.60
2022-11-16T12:12:23.165Z,16.70
2022-11-16T12:14:43.436Z,16.70
2022-11-16T12:17:07.000Z,16.70
2022-11-16T12:19:08.650Z,16.70
2022-11-16T12:21:10.495Z,16.70
2022-11-16T12:23:32.487Z,16.70
2022-11-16T12:25:57.446Z,16.70
2022-11-16T12:28:17.447Z,16.70
2022-11-16T12:30:20.890Z,16.80
2022-11-16T12:32:25.553Z,16.80
2022-11-16T12:34:45.744Z,16.80
2022-11-16T12:36:50.207Z,16.80
2022-11-16T12:39:10.138Z,16.80
2022-11-16T12:41:18.543Z,16.80
2022-11-16T12:43:26.158Z,16.80
2022-11-16T12:45:32.600Z,16.80
2022-11-16T12:47:37.560Z,16.80
2022-11-16T12:49:52.356Z,16.80
2022-11-16T12:51:58.896Z,16.80
2022-11-16T12:54:19.404Z,16.80
2022-11-16T12:56:27.257Z,16.90
2022-11-16T12:58:44.234Z,16.90
2022-11-16T13:01:02.647Z,16.90
2022-11-16T13:03:07.445Z,17.00
2022-11-16T13:05:44.663Z,17.00
2022-11-16T13:07:51.518Z,17.10
2022-11-16T13:09:59.072Z,17.10
2022-11-16T13:12:02.656Z,17.20
2022-11-16T13:14:06.558Z,17.20
2022-11-16T13:16:09.594Z,17.20
2022-11-16T13:18:14.294Z,17.20
2022-11-16T13:20:18.814Z,17.20
2022-11-16T13:22:23.752Z,17.20
2022-11-16T13:24:28.485Z,17.30
2022-11-16T13:26:33.149Z,17.30
2022-11-16T13:28:35.089Z,17.30
2022-11-16T13:31:00.368Z,17.30
2022-11-16T13:33:21.022Z,17.20
2022-11-16T13:35:23.922Z,17.20
2022-11-16T13:37:37.791Z,17.20
2022-11-16T13:39:57.856Z,17.20
2022-11-16T13:42:07.172Z,17.20
2022-11-16T13:44:23.352Z,17.20
2022-11-16T13:46:55.399Z,17.20
2022-11-16T13:48:58.238Z,17.20
2022-11-16T13:51:01.812Z,17.20
2022-11-16T13:55:34.472Z,17.20
2022-11-16T13:57:36.511Z,17.20
2022-11-16T13:59:38.475Z,17.30
2022-11-16T14:02:05.784Z,17.20
2022-11-16T14:04:26.242Z,17.30
2022-11-16T14:06:36.859Z,17.30
2022-11-16T14:08:42.826Z,17.30
2022-11-16T14:10:50.120Z,17.30
2022-11-16T14:12:55.532Z,17.30
2022-11-16T14:15:12.511Z,17.20
2022-11-16T14:17:34.222Z,17.20
2022-11-16T14:19:46.476Z,17.20
2022-11-16T14:21:50.558Z,17.20
2022-11-16T14:24:11.564Z,17.20
2022-11-16T14:27:02.221Z,17.10
2022-11-16T14:32:23.638Z,17.10
2022-11-16T14:35:07.081Z,17.10
2022-11-16T14:37:33.442Z,17.10
2022-11-16T14:40:11.341Z,17.10
2022-11-16T14:43:14.875Z,17.00
2022-11-16T14:50:41.064Z,17.00
2022-11-16T14:53:16.498Z,17.00
2022-11-16T14:55:31.436Z,17.00
2022-11-16T14:57:51.292Z,17.00
2022-11-16T15:00:10.837Z,16.90
2022-11-16T15:02:24.268Z,16.90
2022-11-16T15:04:34.999Z,16.90
2022-11-16T15:09:42.946Z,16.90
2022-11-16T15:12:22.693Z,16.90
2022-11-16T15:15:22.030Z,16.80
2022-11-16T15:18:02.847Z,16.80
2022-11-16T15:22:41.666Z,16.80
2022-11-16T15:25:00.327Z,16.80
2022-11-16T15:27:08.773Z,16.80
2022-11-16T15:32:07.521Z,16.80
2022-11-16T15:36:58.899Z,16.70
2022-11-16T15:50:06.368Z,16.60
2022-11-16T15:52:55.221Z,16.60
2022-11-16T15:58:40.696Z,16.50
2022-11-16T16:01:47.067Z,16.50
2022-11-16T16:07:08.355Z,16.40
2022-11-16T16:29:39.982Z,16.00
2022-11-16T16:35:19.094Z,16.00
2022-11-16T16:38:06.883Z,15.90
2022-11-16T16:44:02.988Z,15.90
2022-11-16T16:50:09.341Z,15.80
2022-11-16T16:52:03.140Z,15.70
2022-11-16T16:54:35.586Z,15.70
2022-11-16T16:57:08.341Z,15.70
2022-11-16T16:59:50.591Z,15.60
2022-11-16T17:14:58.911Z,15.60
2022-11-16T17:33:54.121Z,15.50
2022-11-16T17:36:01.487Z,15.50
2022-11-16T17:38:39.639Z,15.50
2022-11-16T17:44:14.938Z,15.50
2022-11-16T17:46:35.445Z,15.50
2022-11-16T17:51:39.308Z,15.50
2022-11-16T18:01:39.397Z,15.40
2022-11-16T18:13:57.042Z,15.40
2022-11-16T18:31:36.160Z,15.40
2022-11-16T18:43:47.092Z,15.40
2022-11-16T18:46:09.907Z,15.40
2022-11-16T18:49:02.268Z,15.40
2022-11-16T18:57:15.391Z,15.30
2022-11-16T19:00:00.639Z,15.30
2022-11-16T19:21:35.679Z,15.20
2022-11-16T19:27:19.992Z,15.20
2022-11-16T19:33:06.738Z,15.20
2022-11-16T19:35:46.602Z,15.20
2022-11-16T19:41:09.105Z,15.10
2022-11-16T19:58:44.708Z,15.10
2022-11-16T20:05:02.539Z,15.10
2022-11-16T20:17:08.689Z,15.00
2022-11-16T20:19:10.315Z,15.00
2022-11-16T20:21:32.813Z,15.00
2022-11-16T20:24:20.076Z,14.90
2022-11-16T20:27:07.664Z,14.90
2022-11-16T20:29:58.032Z,15.00
2022-11-16T20:35:28.081Z,14.90
2022-11-16T20:37:47.399Z,15.00
2022-11-16T20:43:12.869Z,14.90
2022-11-16T20:45:45.962Z,14.90
2022-11-16T20:48:29.387Z,14.90
2022-11-16T20:54:21.552Z,14.90
2022-11-16T20:57:02.705Z,14.90
2022-11-16T20:59:16.407Z,14.90
2022-11-16T21:05:08.708Z,14.80
2022-11-16T21:10:19.075Z,14.80
2022-11-16T21:12:55.398Z,14.80
2022-11-16T21:18:30.890Z,14.80
2022-11-16T21:20:33.033Z,14.70
2022-11-16T21:22:40.521Z,14.70
2022-11-16T21:27:16.687Z,14.70
2022-11-16T21:32:20.321Z,14.70
2022-11-16T21:37:52.668Z,14.70
2022-11-16T21:43:16.096Z,14.60
2022-11-16T21:48:24.191Z,14.60
2022-11-16T21:50:31.636Z,14.60
2022-11-16T21:52:34.033Z,14.60
2022-11-16T21:54:47.937Z,14.60
2022-11-16T21:56:49.626Z,14.60
2022-11-16T21:58:52.914Z,14.60
2022-11-16T22:00:55.601Z,14.60
2022-11-16T22:02:57.316Z,14.60
2022-11-16T22:05:17.748Z,14.60
2022-11-16T22:07:36.588Z,14.60
2022-11-16T22:09:38.367Z,14.60
2022-11-16T22:11:39.995Z,14.60
2022-11-16T22:13:42.036Z,14.60
2022-11-16T22:15:43.758Z,14.50
2022-11-16T22:17:45.477Z,14.50
2022-11-16T22:19:47.517Z,14.50
2022-11-16T22:21:49.224Z,14.50
2022-11-16T22:23:50.877Z,14.50
2022-11-16T22:25:52.910Z,14.50
2022-11-16T22:30:16.799Z,14.50
2022-11-16T22:32:18.634Z,14.50
2022-11-16T22:34:20.631Z,14.50
2022-11-16T22:36:22.333Z,14.50
2022-11-16T22:38:24.243Z,14.50
2022-11-16T22:40:25.977Z,14.50
2022-11-16T22:42:27.649Z,14.50
2022-11-16T22:44:29.602Z,14.50
2022-11-16T22:46:31.374Z,14.50
2022-11-16T22:48:34.505Z,14.50
2022-11-16T22:50:36.218Z,14.50
2022-11-16T22:52:37.858Z,14.50
2022-11-16T22:54:39.644Z,14.50
2022-11-16T22:56:41.337Z,14.50
2022-11-16T22:58:43.089Z,14.50
2022-11-16T23:00:47.858Z,14.50
2022-11-16T23:02:49.684Z,14.50
2022-11-16T23:04:51.373Z,14.50
2022-11-16T23:06:53.043Z,14.50
2022-11-16T23:08:55.026Z,14.50
2022-11-16T23:11:29.880Z,14.50
2022-11-16T23:13:49.917Z,14.50
2022-11-16T23:15:51.659Z,14.50
2022-11-16T23:17:53.360Z,14.50
2022-11-16T23:20:17.653Z,14.40
2022-11-16T23:22:39.653Z,14.40
2022-11-16T23:24:59.854Z,14.40
2022-11-16T23:27:21.527Z,14.40
2022-11-16T23:29:23.225Z,14.40
2022-11-16T23:31:25.008Z,14.40
2022-11-16T23:33:43.775Z,14.40
2022-11-16T23:35:45.472Z,14.40
2022-11-16T23:37:54.483Z,14.40
2022-11-16T23:39:56.214Z,14.40
2022-11-16T23:42:16.560Z,14.40
2022-11-16T23:44:18.220Z,14.40
2022-11-16T23:46:19.956Z,14.40
2022-11-16T23:48:22.244Z,14.40
2022-11-16T23:52:49.395Z,14.40
2022-11-16T23:55:16.824Z,14.40
2022-11-16T23:57:30.833Z,14.40
2022-11-16T23:59:55.892Z,14.40
